sensor_id;sensor_type;location;lat;lon;timestamp;temperature;humidity
64869;DHT22;51349;52.424;10.840;2023-05-31T00:02:27;11.60;99.90
64869;DHT22;51349;52.424;10.840;2023-05-31T00:07:27;11.50;99.90
64869;DHT22;51349;52.424;10.840;2023-05-31T00:12:28;11.40;99.90
64869;DHT22;51349;52.424;10.840;2023-05-31T00:17:28;11.30;99.90
64869;DHT22;51349;52.424;10.840;2023-05-31T00:22:29;11.20;99.90
64869;DHT22;51349;52.424;10.840;2023-05-31T00:27:30;11.10;99.90
64869;DHT22;51349;52.424;10.840;2023-05-31T00:32:30;11.10;99.90
64869;DHT22;51349;52.424;10.840;2023-05-31T00:37:31;11.00;99.90
64869;DHT22;51349;52.424;10.840;2023-05-31T00:42:37;10.80;99.90
64869;DHT22;51349;52.424;10.840;2023-05-31T00:47:38;10.70;99.90
64869;DHT22;51349;52.424;10.840;2023-05-31T00:52:39;10.70;99.90
64869;DHT22;51349;52.424;10.840;2023-05-31T00:57:40;10.60;99.90
64869;DHT22;51349;52.424;10.840;2023-05-31T01:02:41;10.50;99.90
64869;DHT22;51349;52.424;10.840;2023-05-31T01:07:44;10.40;99.90
64869;DHT22;51349;52.424;10.840;2023-05-31T01:18:33;10.20;99.90
64869;DHT22;51349;52.424;10.840;2023-05-31T01:29:05;10.10;99.90
64869;DHT22;51349;52.424;10.840;2023-05-31T01:34:08;10.00;99.90
64869;DHT22;51349;52.424;10.840;2023-05-31T01:39:10;9.90;99.90
64869;DHT22;51349;52.424;10.840;2023-05-31T01:44:13;9.90;99.90
64869;DHT22;51349;52.424;10.840;2023-05-31T01:49:15;9.80;99.90
64869;DHT22;51349;52.424;10.840;2023-05-31T01:54:16;9.70;99.90
64869;DHT22;51349;52.424;10.840;2023-05-31T01:59:17;9.60;99.90
64869;DHT22;51349;52.424;10.840;2023-05-31T02:04:18;9.60;99.90
64869;DHT22;51349;52.424;10.840;2023-05-31T02:09:21;9.50;99.90
64869;DHT22;51349;52.424;10.840;2023-05-31T02:14:21;9.40;99.90
64869;DHT22;51349;52.424;10.840;2023-05-31T02:19:22;9.40;99.90
64869;DHT22;51349;52.424;10.840;2023-05-31T02:24:25;9.30;99.90
64869;DHT22;51349;52.424;10.840;2023-05-31T02:29:27;9.30;99.90
64869;DHT22;51349;52.424;10.840;2023-05-31T02:34:28;9.20;99.90
64869;DHT22;51349;52.424;10.840;2023-05-31T02:39:29;9.20;99.90
64869;DHT22;51349;52.424;10.840;2023-05-31T02:44:30;9.10;99.90
64869;DHT22;51349;52.424;10.840;2023-05-31T02:49:30;8.90;99.90
64869;DHT22;51349;52.424;10.840;2023-05-31T02:54:31;8.90;99.90
64869;DHT22;51349;52.424;10.840;2023-05-31T02:59:31;8.90;99.90
64869;DHT22;51349;52.424;10.840;2023-05-31T03:04:32;8.80;99.90
64869;DHT22;51349;52.424;10.840;2023-05-31T03:09:33;8.80;99.90
64869;DHT22;51349;52.424;10.840;2023-05-31T03:14:34;8.70;99.90
64869;DHT22;51349;52.424;10.840;2023-05-31T03:19:34;8.70;99.90
64869;DHT22;51349;52.424;10.840;2023-05-31T03:24:35;8.70;99.90
64869;DHT22;51349;52.424;10.840;2023-05-31T03:29:40;8.70;99.90
64869;DHT22;51349;52.424;10.840;2023-05-31T03:34:41;8.70;99.90
64869;DHT22;51349;52.424;10.840;2023-05-31T03:39:42;8.70;99.90
64869;DHT22;51349;52.424;10.840;2023-05-31T03:44:42;8.70;99.90
64869;DHT22;51349;52.424;10.840;2023-05-31T03:49:44;8.80;99.90
64869;DHT22;51349;52.424;10.840;2023-05-31T03:54:46;9.00;99.90
64869;DHT22;51349;52.424;10.840;2023-05-31T03:59:47;9.20;99.90
64869;DHT22;51349;52.424;10.840;2023-05-31T04:04:47;9.40;99.90
64869;DHT22;51349;52.424;10.840;2023-05-31T04:09:48;9.60;99.90
64869;DHT22;51349;52.424;10.840;2023-05-31T04:14:49;9.70;99.90
64869;DHT22;51349;52.424;10.840;2023-05-31T04:19:50;9.70;99.90
64869;DHT22;51349;52.424;10.840;2023-05-31T04:24:51;9.90;99.90
64869;DHT22;51349;52.424;10.840;2023-05-31T04:29:51;10.00;99.90
64869;DHT22;51349;52.424;10.840;2023-05-31T04:34:52;10.10;99.90
64869;DHT22;51349;52.424;10.840;2023-05-31T04:39:58;10.30;99.90
64869;DHT22;51349;52.424;10.840;2023-05-31T04:45:00;10.40;99.90
64869;DHT22;51349;52.424;10.840;2023-05-31T04:50:01;10.60;99.90
64869;DHT22;51349;52.424;10.840;2023-05-31T04:55:02;10.70;99.90
64869;DHT22;51349;52.424;10.840;2023-05-31T05:00:04;10.90;99.90
64869;DHT22;51349;52.424;10.840;2023-05-31T05:05:12;11.10;99.90
64869;DHT22;51349;52.424;10.840;2023-05-31T05:10:13;11.20;99.90
64869;DHT22;51349;52.424;10.840;2023-05-31T05:15:14;11.30;99.90
64869;DHT22;51349;52.424;10.840;2023-05-31T05:20:15;11.50;99.90
64869;DHT22;51349;52.424;10.840;2023-05-31T05:25:15;11.60;99.90
64869;DHT22;51349;52.424;10.840;2023-05-31T05:30:16;11.60;99.90
64869;DHT22;51349;52.424;10.840;2023-05-31T05:35:17;11.70;99.90
64869;DHT22;51349;52.424;10.840;2023-05-31T05:40:18;11.90;99.90
64869;DHT22;51349;52.424;10.840;2023-05-31T05:45:19;12.10;99.90
64869;DHT22;51349;52.424;10.840;2023-05-31T05:50:20;12.30;99.90
64869;DHT22;51349;52.424;10.840;2023-05-31T05:55:21;12.50;99.90
64869;DHT22;51349;52.424;10.840;2023-05-31T06:00:22;12.70;99.90
64869;DHT22;51349;52.424;10.840;2023-05-31T06:05:24;12.80;99.90
64869;DHT22;51349;52.424;10.840;2023-05-31T06:10:27;13.10;99.90
64869;DHT22;51349;52.424;10.840;2023-05-31T06:15:27;13.20;99.90
64869;DHT22;51349;52.424;10.840;2023-05-31T06:20:28;13.50;99.90
64869;DHT22;51349;52.424;10.840;2023-05-31T06:25:29;13.60;99.90
64869;DHT22;51349;52.424;10.840;2023-05-31T06:30:30;13.90;99.90
64869;DHT22;51349;52.424;10.840;2023-05-31T06:35:31;14.20;99.90
64869;DHT22;51349;52.424;10.840;2023-05-31T06:40:31;14.50;99.90
64869;DHT22;51349;52.424;10.840;2023-05-31T06:45:32;14.80;99.90
64869;DHT22;51349;52.424;10.840;2023-05-31T06:50:32;15.00;99.90
64869;DHT22;51349;52.424;10.840;2023-05-31T06:55:34;15.40;99.90
64869;DHT22;51349;52.424;10.840;2023-05-31T07:00:35;15.50;99.90
64869;DHT22;51349;52.424;10.840;2023-05-31T07:05:35;15.90;99.90
64869;DHT22;51349;52.424;10.840;2023-05-31T07:10:36;16.30;99.90
64869;DHT22;51349;52.424;10.840;2023-05-31T07:15:37;16.70;99.90
64869;DHT22;51349;52.424;10.840;2023-05-31T07:20:37;16.90;99.90
64869;DHT22;51349;52.424;10.840;2023-05-31T07:25:38;16.90;99.90
64869;DHT22;51349;52.424;10.840;2023-05-31T07:30:39;17.80;99.90
64869;DHT22;51349;52.424;10.840;2023-05-31T07:35:41;18.50;99.90
64869;DHT22;51349;52.424;10.840;2023-05-31T07:40:42;18.70;99.90
64869;DHT22;51349;52.424;10.840;2023-05-31T07:45:43;19.50;99.90
64869;DHT22;51349;52.424;10.840;2023-05-31T07:50:44;19.70;99.90
64869;DHT22;51349;52.424;10.840;2023-05-31T07:55:45;20.60;99.90
64869;DHT22;51349;52.424;10.840;2023-05-31T08:00:46;21.50;99.40
64869;DHT22;51349;52.424;10.840;2023-05-31T08:05:47;21.10;96.80
64869;DHT22;51349;52.424;10.840;2023-05-31T08:10:49;22.40;96.40
64869;DHT22;51349;52.424;10.840;2023-05-31T08:15:50;22.90;96.40
64869;DHT22;51349;52.424;10.840;2023-05-31T08:20:52;23.10;89.40
64869;DHT22;51349;52.424;10.840;2023-05-31T08:25:54;21.90;89.70
64869;DHT22;51349;52.424;10.840;2023-05-31T08:30:55;22.70;91.20
64869;DHT22;51349;52.424;10.840;2023-05-31T08:35:55;23.00;90.30
64869;DHT22;51349;52.424;10.840;2023-05-31T08:41:01;23.80;90.20
64869;DHT22;51349;52.424;10.840;2023-05-31T08:46:04;23.70;83.40
64869;DHT22;51349;52.424;10.840;2023-05-31T08:51:07;23.10;80.30
64869;DHT22;51349;52.424;10.840;2023-05-31T08:56:09;23.00;80.70
64869;DHT22;51349;52.424;10.840;2023-05-31T09:01:11;24.10;79.40
64869;DHT22;51349;52.424;10.840;2023-05-31T09:06:11;25.50;78.50
64869;DHT22;51349;52.424;10.840;2023-05-31T09:11:12;24.10;74.60
64869;DHT22;51349;52.424;10.840;2023-05-31T09:16:14;24.80;77.00
64869;DHT22;51349;52.424;10.840;2023-05-31T09:21:15;24.40;70.80
64869;DHT22;51349;52.424;10.840;2023-05-31T09:26:15;24.50;75.50
64869;DHT22;51349;52.424;10.840;2023-05-31T09:31:16;24.30;72.30
64869;DHT22;51349;52.424;10.840;2023-05-31T09:36:25;24.80;72.90
64869;DHT22;51349;52.424;10.840;2023-05-31T09:41:27;23.80;72.00
64869;DHT22;51349;52.424;10.840;2023-05-31T09:46:28;23.50;70.00
64869;DHT22;51349;52.424;10.840;2023-05-31T09:51:30;24.20;73.30
64869;DHT22;51349;52.424;10.840;2023-05-31T09:56:39;24.80;67.70
64869;DHT22;51349;52.424;10.840;2023-05-31T10:01:41;24.60;72.30
64869;DHT22;51349;52.424;10.840;2023-05-31T10:06:44;24.80;70.80
64869;DHT22;51349;52.424;10.840;2023-05-31T10:11:50;24.80;65.90
64869;DHT22;51349;52.424;10.840;2023-05-31T10:16:54;26.00;68.20
64869;DHT22;51349;52.424;10.840;2023-05-31T10:21:56;25.60;67.20
64869;DHT22;51349;52.424;10.840;2023-05-31T10:27:12;25.00;68.70
64869;DHT22;51349;52.424;10.840;2023-05-31T10:32:20;25.80;67.00
64869;DHT22;51349;52.424;10.840;2023-05-31T10:37:24;24.90;61.40
64869;DHT22;51349;52.424;10.840;2023-05-31T10:42:45;25.10;61.00
64869;DHT22;51349;52.424;10.840;2023-05-31T10:47:54;24.60;59.10
64869;DHT22;51349;52.424;10.840;2023-05-31T10:53:12;25.10;64.00
64869;DHT22;51349;52.424;10.840;2023-05-31T10:58:30;24.70;60.20
64869;DHT22;51349;52.424;10.840;2023-05-31T11:03:33;25.30;65.40
64869;DHT22;51349;52.424;10.840;2023-05-31T11:08:35;25.20;61.10
64869;DHT22;51349;52.424;10.840;2023-05-31T11:19:29;25.50;60.70
64869;DHT22;51349;52.424;10.840;2023-05-31T11:39:54;25.10;60.00
64869;DHT22;51349;52.424;10.840;2023-05-31T11:44:56;25.00;63.60
64869;DHT22;51349;52.424;10.840;2023-05-31T11:49:57;24.90;66.30
64869;DHT22;51349;52.424;10.840;2023-05-31T11:55:04;25.10;63.30
64869;DHT22;51349;52.424;10.840;2023-05-31T12:00:06;24.80;60.70
64869;DHT22;51349;52.424;10.840;2023-05-31T12:05:15;24.90;65.30
64869;DHT22;51349;52.424;10.840;2023-05-31T12:10:15;25.20;63.30
64869;DHT22;51349;52.424;10.840;2023-05-31T12:15:17;25.30;67.40
64869;DHT22;51349;52.424;10.840;2023-05-31T12:20:17;25.30;66.00
64869;DHT22;51349;52.424;10.840;2023-05-31T12:25:18;25.40;64.40
64869;DHT22;51349;52.424;10.840;2023-05-31T12:30:19;25.20;62.90
64869;DHT22;51349;52.424;10.840;2023-05-31T12:35:19;25.00;62.70
64869;DHT22;51349;52.424;10.840;2023-05-31T12:40:21;25.10;62.20
64869;DHT22;51349;52.424;10.840;2023-05-31T12:45:23;25.00;63.00
64869;DHT22;51349;52.424;10.840;2023-05-31T12:50:28;25.30;62.80
64869;DHT22;51349;52.424;10.840;2023-05-31T12:55:28;25.30;61.50
64869;DHT22;51349;52.424;10.840;2023-05-31T13:00:29;25.10;58.30
64869;DHT22;51349;52.424;10.840;2023-05-31T13:05:30;25.30;59.80
64869;DHT22;51349;52.424;10.840;2023-05-31T13:10:31;25.60;60.20
64869;DHT22;51349;52.424;10.840;2023-05-31T13:15:31;25.20;60.00
64869;DHT22;51349;52.424;10.840;2023-05-31T13:20:32;25.20;58.10
64869;DHT22;51349;52.424;10.840;2023-05-31T13:25:33;25.40;59.20
64869;DHT22;51349;52.424;10.840;2023-05-31T13:30:34;25.30;59.20
64869;DHT22;51349;52.424;10.840;2023-05-31T13:35:35;25.30;59.00
64869;DHT22;51349;52.424;10.840;2023-05-31T13:40:39;25.00;56.30
64869;DHT22;51349;52.424;10.840;2023-05-31T13:45:40;25.20;58.60
64869;DHT22;51349;52.424;10.840;2023-05-31T13:50:41;25.20;58.50
64869;DHT22;51349;52.424;10.840;2023-05-31T13:55:42;25.20;59.00
64869;DHT22;51349;52.424;10.840;2023-05-31T14:00:43;25.10;59.50
64869;DHT22;51349;52.424;10.840;2023-05-31T14:05:52;24.70;57.20
64869;DHT22;51349;52.424;10.840;2023-05-31T14:10:53;24.60;63.10
64869;DHT22;51349;52.424;10.840;2023-05-31T14:15:54;24.60;65.20
64869;DHT22;51349;52.424;10.840;2023-05-31T14:20:54;24.40;59.80
64869;DHT22;51349;52.424;10.840;2023-05-31T14:25:55;24.20;62.20
64869;DHT22;51349;52.424;10.840;2023-05-31T14:30:56;24.40;60.60
64869;DHT22;51349;52.424;10.840;2023-05-31T14:35:56;24.50;61.30
64869;DHT22;51349;52.424;10.840;2023-05-31T14:40:57;24.50;56.80
64869;DHT22;51349;52.424;10.840;2023-05-31T14:45:58;24.70;59.40
64869;DHT22;51349;52.424;10.840;2023-05-31T14:50:58;24.80;57.00
64869;DHT22;51349;52.424;10.840;2023-05-31T14:55:59;24.70;53.30
64869;DHT22;51349;52.424;10.840;2023-05-31T15:01:00;24.70;58.20
64869;DHT22;51349;52.424;10.840;2023-05-31T15:06:00;24.80;58.80
64869;DHT22;51349;52.424;10.840;2023-05-31T15:11:01;24.80;58.70
64869;DHT22;51349;52.424;10.840;2023-05-31T15:16:02;25.10;59.70
64869;DHT22;51349;52.424;10.840;2023-05-31T15:21:03;25.20;59.10
64869;DHT22;51349;52.424;10.840;2023-05-31T15:26:04;25.10;58.30
64869;DHT22;51349;52.424;10.840;2023-05-31T15:31:05;25.10;59.00
64869;DHT22;51349;52.424;10.840;2023-05-31T15:36:09;25.30;59.40
64869;DHT22;51349;52.424;10.840;2023-05-31T15:41:09;25.30;60.50
64869;DHT22;51349;52.424;10.840;2023-05-31T15:46:10;25.20;58.80
64869;DHT22;51349;52.424;10.840;2023-05-31T15:51:11;25.30;59.90
64869;DHT22;51349;52.424;10.840;2023-05-31T15:56:12;25.40;60.70
64869;DHT22;51349;52.424;10.840;2023-05-31T16:01:12;25.50;61.00
64869;DHT22;51349;52.424;10.840;2023-05-31T16:06:13;25.50;57.90
64869;DHT22;51349;52.424;10.840;2023-05-31T16:11:13;25.60;60.90
64869;DHT22;51349;52.424;10.840;2023-05-31T16:16:14;25.90;64.60
64869;DHT22;51349;52.424;10.840;2023-05-31T16:21:15;25.80;62.60
64869;DHT22;51349;52.424;10.840;2023-05-31T16:26:17;25.50;57.90
64869;DHT22;51349;52.424;10.840;2023-05-31T16:31:18;25.70;58.00
64869;DHT22;51349;52.424;10.840;2023-05-31T16:36:18;26.00;60.60
64869;DHT22;51349;52.424;10.840;2023-05-31T16:41:19;25.90;60.00
64869;DHT22;51349;52.424;10.840;2023-05-31T16:46:20;25.90;63.00
64869;DHT22;51349;52.424;10.840;2023-05-31T16:51:21;25.70;60.00
64869;DHT22;51349;52.424;10.840;2023-05-31T16:56:22;25.70;58.40
64869;DHT22;51349;52.424;10.840;2023-05-31T17:01:23;25.60;59.60
64869;DHT22;51349;52.424;10.840;2023-05-31T17:06:24;25.80;63.40
64869;DHT22;51349;52.424;10.840;2023-05-31T17:11:25;25.90;60.60
64869;DHT22;51349;52.424;10.840;2023-05-31T17:16:26;25.60;60.30
64869;DHT22;51349;52.424;10.840;2023-05-31T17:21:30;25.50;58.70
64869;DHT22;51349;52.424;10.840;2023-05-31T17:26:31;25.30;59.40
64869;DHT22;51349;52.424;10.840;2023-05-31T17:31:32;25.30;61.60
64869;DHT22;51349;52.424;10.840;2023-05-31T17:36:32;25.20;63.10
64869;DHT22;51349;52.424;10.840;2023-05-31T17:41:33;24.90;60.80
64869;DHT22;51349;52.424;10.840;2023-05-31T17:46:34;24.80;63.60
64869;DHT22;51349;52.424;10.840;2023-05-31T17:51:35;24.60;60.70
64869;DHT22;51349;52.424;10.840;2023-05-31T17:56:36;24.40;62.60
64869;DHT22;51349;52.424;10.840;2023-05-31T18:01:38;24.20;64.10
64869;DHT22;51349;52.424;10.840;2023-05-31T18:06:41;24.10;66.40
64869;DHT22;51349;52.424;10.840;2023-05-31T18:11:42;23.90;67.70
64869;DHT22;51349;52.424;10.840;2023-05-31T18:16:43;23.70;68.00
64869;DHT22;51349;52.424;10.840;2023-05-31T18:21:43;23.50;69.00
64869;DHT22;51349;52.424;10.840;2023-05-31T18:26:44;23.30;68.40
64869;DHT22;51349;52.424;10.840;2023-05-31T18:31:45;23.20;70.90
64869;DHT22;51349;52.424;10.840;2023-05-31T18:36:46;23.00;69.50
64869;DHT22;51349;52.424;10.840;2023-05-31T18:41:46;22.70;69.80
64869;DHT22;51349;52.424;10.840;2023-05-31T18:46:47;22.50;71.80
64869;DHT22;51349;52.424;10.840;2023-05-31T18:51:48;22.30;74.80
64869;DHT22;51349;52.424;10.840;2023-05-31T18:56:49;22.00;71.60
64869;DHT22;51349;52.424;10.840;2023-05-31T19:01:49;21.80;73.40
64869;DHT22;51349;52.424;10.840;2023-05-31T19:06:51;21.50;77.20
64869;DHT22;51349;52.424;10.840;2023-05-31T19:11:52;21.10;75.20
64869;DHT22;51349;52.424;10.840;2023-05-31T19:16:53;21.10;74.50
64869;DHT22;51349;52.424;10.840;2023-05-31T19:21:54;20.90;73.10
64869;DHT22;51349;52.424;10.840;2023-05-31T19:26:55;20.60;74.70
64869;DHT22;51349;52.424;10.840;2023-05-31T19:31:55;20.50;76.00
64869;DHT22;51349;52.424;10.840;2023-05-31T19:36:56;20.40;77.30
64869;DHT22;51349;52.424;10.840;2023-05-31T19:41:57;20.40;76.60
64869;DHT22;51349;52.424;10.840;2023-05-31T19:46:59;20.30;77.50
64869;DHT22;51349;52.424;10.840;2023-05-31T19:52:00;20.20;78.30
64869;DHT22;51349;52.424;10.840;2023-05-31T19:57:00;20.00;79.60
64869;DHT22;51349;52.424;10.840;2023-05-31T20:02:03;19.90;80.40
64869;DHT22;51349;52.424;10.840;2023-05-31T20:07:04;19.60;81.20
64869;DHT22;51349;52.424;10.840;2023-05-31T20:12:05;19.40;82.60
64869;DHT22;51349;52.424;10.840;2023-05-31T20:17:06;19.30;83.30
64869;DHT22;51349;52.424;10.840;2023-05-31T20:22:08;19.00;83.90
64869;DHT22;51349;52.424;10.840;2023-05-31T20:27:08;18.90;84.30
64869;DHT22;51349;52.424;10.840;2023-05-31T20:32:09;18.70;85.40
64869;DHT22;51349;52.424;10.840;2023-05-31T20:37:10;18.60;85.10
64869;DHT22;51349;52.424;10.840;2023-05-31T20:42:11;18.40;85.90
64869;DHT22;51349;52.424;10.840;2023-05-31T20:47:11;18.20;87.40
64869;DHT22;51349;52.424;10.840;2023-05-31T20:52:13;18.10;87.60
64869;DHT22;51349;52.424;10.840;2023-05-31T20:57:13;17.90;87.60
64869;DHT22;51349;52.424;10.840;2023-05-31T21:02:14;17.70;88.40
64869;DHT22;51349;52.424;10.840;2023-05-31T21:07:15;17.50;88.40
64869;DHT22;51349;52.424;10.840;2023-05-31T21:12:16;17.30;89.60
64869;DHT22;51349;52.424;10.840;2023-05-31T21:17:17;17.10;90.00
64869;DHT22;51349;52.424;10.840;2023-05-31T21:22:17;17.00;90.20
64869;DHT22;51349;52.424;10.840;2023-05-31T21:27:18;17.00;90.70
64869;DHT22;51349;52.424;10.840;2023-05-31T21:32:19;16.90;90.60
64869;DHT22;51349;52.424;10.840;2023-05-31T21:37:20;16.80;90.80
64869;DHT22;51349;52.424;10.840;2023-05-31T21:42:20;16.60;91.00
64869;DHT22;51349;52.424;10.840;2023-05-31T21:47:21;16.40;91.70
64869;DHT22;51349;52.424;10.840;2023-05-31T21:52:22;16.30;92.00
64869;DHT22;51349;52.424;10.840;2023-05-31T21:57:29;16.20;92.30
64869;DHT22;51349;52.424;10.840;2023-05-31T22:02:30;16.30;92.80
64869;DHT22;51349;52.424;10.840;2023-05-31T22:07:31;16.30;92.70
64869;DHT22;51349;52.424;10.840;2023-05-31T22:12:36;16.10;93.40
64869;DHT22;51349;52.424;10.840;2023-05-31T22:17:37;16.00;93.50
64869;DHT22;51349;52.424;10.840;2023-05-31T22:22:38;16.10;93.50
64869;DHT22;51349;52.424;10.840;2023-05-31T22:27:39;15.90;94.00
64869;DHT22;51349;52.424;10.840;2023-05-31T22:32:39;15.80;93.80
64869;DHT22;51349;52.424;10.840;2023-05-31T22:37:40;15.70;94.30
64869;DHT22;51349;52.424;10.840;2023-05-31T22:42:41;15.40;94.40
64869;DHT22;51349;52.424;10.840;2023-05-31T22:47:42;15.40;95.30
64869;DHT22;51349;52.424;10.840;2023-05-31T22:52:43;15.20;95.20
64869;DHT22;51349;52.424;10.840;2023-05-31T22:57:45;15.20;95.60
64869;DHT22;51349;52.424;10.840;2023-05-31T23:02:46;15.00;95.90
64869;DHT22;51349;52.424;10.840;2023-05-31T23:07:47;14.90;96.30
64869;DHT22;51349;52.424;10.840;2023-05-31T23:12:47;14.70;96.70
64869;DHT22;51349;52.424;10.840;2023-05-31T23:17:48;14.50;97.80
64869;DHT22;51349;52.424;10.840;2023-05-31T23:22:49;14.60;98.60
64869;DHT22;51349;52.424;10.840;2023-05-31T23:27:50;14.50;99.70
64869;DHT22;51349;52.424;10.840;2023-05-31T23:32:51;14.30;99.90
64869;DHT22;51349;52.424;10.840;2023-05-31T23:37:51;14.20;99.90
64869;DHT22;51349;52.424;10.840;2023-05-31T23:42:52;14.10;99.90
64869;DHT22;51349;52.424;10.840;2023-05-31T23:47:53;13.90;99.90
64869;DHT22;51349;52.424;10.840;2023-05-31T23:52:53;13.80;99.90
64869;DHT22;51349;52.424;10.840;2023-05-31T23:57:54;13.60;99.90
